createdAt,value
2023-05-08T00:02:12.618Z,7.50
2023-05-08T00:04:39.592Z,6.80
2023-05-08T00:07:08.281Z,6.65
2023-05-08T00:09:35.189Z,6.03
2023-05-08T00:12:01.927Z,7.53
2023-05-08T00:14:28.947Z,7.45
2023-05-08T00:16:55.855Z,7.05
2023-05-08T00:19:22.812Z,7.85
2023-05-08T00:21:49.666Z,7.38
2023-05-08T00:24:18.013Z,7.38
2023-05-08T00:26:44.830Z,7.60
2023-05-08T00:29:11.745Z,7.00
2023-05-08T00:31:38.727Z,7.25
2023-05-08T00:34:05.596Z,7.85
2023-05-08T00:36:32.533Z,7.60
2023-05-08T00:39:00.076Z,7.70
2023-05-08T00:41:28.833Z,8.00
2023-05-08T00:43:55.993Z,7.05
2023-05-08T00:46:23.109Z,7.72
2023-05-08T00:48:50.245Z,7.20
2023-05-08T00:51:17.506Z,7.68
2023-05-08T00:53:44.935Z,8.00
2023-05-08T00:56:13.688Z,7.55
2023-05-08T00:58:43.561Z,7.72
2023-05-08T01:01:11.393Z,7.80
2023-05-08T01:03:38.632Z,7.93
2023-05-08T01:06:06.412Z,7.88
2023-05-08T01:08:33.295Z,8.32
2023-05-08T01:11:11.808Z,7.63
2023-05-08T01:13:50.804Z,8.07
2023-05-08T01:16:22.775Z,8.65
2023-05-08T01:18:54.449Z,8.55
2023-05-08T01:21:28.256Z,7.63
2023-05-08T01:26:55.771Z,8.07
2023-05-08T01:29:55.184Z,8.18
2023-05-08T01:32:26.361Z,8.45
2023-05-08T01:35:00.730Z,9.20
2023-05-08T01:37:37.685Z,8.80
2023-05-08T01:40:12.869Z,9.35
2023-05-08T01:42:46.530Z,9.50
2023-05-08T01:45:19.618Z,9.10
2023-05-08T01:47:56.019Z,9.32
2023-05-08T01:50:30.956Z,9.70
2023-05-08T01:53:02.170Z,9.23
2023-05-08T01:55:34.403Z,9.80
2023-05-08T01:58:03.510Z,8.75
2023-05-08T02:00:30.791Z,9.40
2023-05-08T02:03:00.407Z,9.60
2023-05-08T02:05:28.380Z,9.70
2023-05-08T02:07:56.436Z,9.68
2023-05-08T02:10:25.183Z,9.55
2023-05-08T02:12:53.780Z,9.50
2023-05-08T02:15:22.080Z,9.57
2023-05-08T02:17:50.499Z,8.63
2023-05-08T02:20:20.338Z,9.30
2023-05-08T02:22:51.315Z,8.90
2023-05-08T02:25:19.630Z,9.20
2023-05-08T02:27:50.696Z,9.23
2023-05-08T02:30:19.360Z,8.98
2023-05-08T02:32:49.657Z,8.73
2023-05-08T02:35:20.061Z,8.32
2023-05-08T02:37:52.588Z,9.02
2023-05-08T02:40:22.619Z,9.05
2023-05-08T02:42:50.266Z,8.80
2023-05-08T02:45:17.801Z,8.55
2023-05-08T02:47:52.977Z,7.57
2023-05-08T02:50:27.528Z,8.43
2023-05-08T02:53:01.433Z,8.40
2023-05-08T02:55:35.662Z,8.73
2023-05-08T02:58:18.535Z,7.72
2023-05-08T03:00:52.426Z,8.40
2023-05-08T03:05:52.531Z,8.45
2023-05-08T03:08:23.951Z,8.65
2023-05-08T03:10:54.151Z,7.35
2023-05-08T03:13:21.457Z,8.10
2023-05-08T03:15:55.127Z,7.68
2023-05-08T03:18:26.381Z,7.55
2023-05-08T03:20:56.289Z,7.72
2023-05-08T03:23:25.870Z,8.05
2023-05-08T03:25:53.643Z,7.40
2023-05-08T03:28:21.765Z,7.80
2023-05-08T03:30:49.582Z,7.90
2023-05-08T03:33:17.537Z,7.90
2023-05-08T03:35:46.182Z,8.32
2023-05-08T03:38:14.774Z,7.65
2023-05-08T03:40:41.935Z,8.38
2023-05-08T03:43:09.688Z,8.02
2023-05-08T03:45:39.326Z,7.63
2023-05-08T03:48:08.057Z,7.85
2023-05-08T03:50:36.665Z,7.05
2023-05-08T03:53:04.168Z,7.60
2023-05-08T03:55:32.891Z,7.00
2023-05-08T03:58:05.637Z,7.28
2023-05-08T04:00:43.279Z,7.28
2023-05-08T04:03:21.414Z,7.35
2023-05-08T04:05:56.977Z,7.68
2023-05-08T04:08:28.751Z,7.07
2023-05-08T04:11:04.551Z,7.15
2023-05-08T04:13:35.888Z,7.65
2023-05-08T04:16:07.468Z,7.03
2023-05-08T04:18:38.113Z,7.65
2023-05-08T04:21:10.912Z,6.45
2023-05-08T04:23:40.482Z,7.43
2023-05-08T04:26:10.711Z,7.10
2023-05-08T04:28:38.197Z,7.05
2023-05-08T04:31:05.756Z,6.25
2023-05-08T04:36:16.009Z,6.72
2023-05-08T04:38:43.740Z,6.97
2023-05-08T04:41:12.922Z,7.47
2023-05-08T04:43:39.940Z,6.55
2023-05-08T04:46:07.151Z,6.65
2023-05-08T04:48:34.797Z,7.40
2023-05-08T04:51:01.826Z,8.43
2023-05-08T04:53:29.145Z,7.40
2023-05-08T04:55:56.983Z,6.35
2023-05-08T04:58:25.371Z,7.10
2023-05-08T05:00:53.202Z,7.32
2023-05-08T05:03:20.623Z,7.00
2023-05-08T05:08:41.704Z,6.68
2023-05-08T05:11:09.520Z,7.10
2023-05-08T05:13:39.731Z,7.40
2023-05-08T05:16:07.794Z,6.72
2023-05-08T05:18:35.425Z,7.68
2023-05-08T05:21:03.984Z,6.90
2023-05-08T05:23:32.771Z,7.18
2023-05-08T05:26:00.568Z,7.28
2023-05-08T05:28:27.573Z,7.60
2023-05-08T05:30:57.023Z,7.18
2023-05-08T05:33:25.498Z,7.03
2023-05-08T05:35:53.470Z,6.97
2023-05-08T05:38:20.776Z,7.35
2023-05-08T05:40:47.977Z,7.18
2023-05-08T05:43:15.774Z,7.30
2023-05-08T05:45:43.005Z,7.07
2023-05-08T05:48:12.069Z,7.43
2023-05-08T05:50:40.129Z,6.80
2023-05-08T05:53:07.941Z,7.88
2023-05-08T06:01:00.395Z,6.72
2023-05-08T06:03:32.225Z,7.15
2023-05-08T06:06:00.250Z,7.07
2023-05-08T06:08:28.198Z,7.07
2023-05-08T06:10:57.025Z,6.85
2023-05-08T06:13:24.816Z,6.43
2023-05-08T06:15:53.858Z,6.47
2023-05-08T06:18:21.186Z,7.40
2023-05-08T06:21:01.345Z,6.60
2023-05-08T06:23:29.584Z,6.68
2023-05-08T06:25:57.465Z,7.47
2023-05-08T06:28:32.570Z,6.95
2023-05-08T06:31:00.292Z,7.53
2023-05-08T06:33:39.092Z,7.55
2023-05-08T06:36:08.389Z,6.95
2023-05-08T06:38:35.547Z,7.13
2023-05-08T06:41:02.669Z,7.20
2023-05-08T06:43:40.622Z,6.85
2023-05-08T06:46:09.890Z,6.78
2023-05-08T06:57:03.346Z,7.25
2023-05-08T07:02:17.536Z,6.97
2023-05-08T07:10:37.582Z,6.90
2023-05-08T07:13:04.704Z,6.85
2023-05-08T07:15:32.241Z,6.65
2023-05-08T07:23:22.492Z,7.32
2023-05-08T07:28:35.796Z,6.70
2023-05-08T07:31:17.223Z,7.07
2023-05-08T07:33:48.524Z,7.22
2023-05-08T07:36:18.740Z,7.22
2023-05-08T07:41:32.825Z,7.22
2023-05-08T07:44:01.603Z,6.28
2023-05-08T07:46:36.421Z,7.18
2023-05-08T07:49:03.896Z,7.28
2023-05-08T07:51:31.173Z,6.78
2023-05-08T07:54:01.039Z,6.10
2023-05-08T07:56:34.458Z,6.30
2023-05-08T07:59:03.382Z,6.57
2023-05-08T08:06:57.393Z,6.72
2023-05-08T08:09:26.822Z,6.13
2023-05-08T08:11:59.984Z,6.00
2023-05-08T08:17:16.366Z,6.25
2023-05-08T08:19:47.400Z,5.80
2023-05-08T08:22:16.212Z,6.47
2023-05-08T08:27:42.863Z,6.38
2023-05-08T08:35:33.818Z,6.63
2023-05-08T08:43:49.288Z,7.05
2023-05-08T08:46:20.750Z,7.68
2023-05-08T08:48:51.255Z,7.22
2023-05-08T08:51:25.794Z,6.80
2023-05-08T08:59:38.456Z,6.65
2023-05-08T09:02:10.089Z,7.78
2023-05-08T09:04:37.739Z,7.20
2023-05-08T09:07:04.926Z,7.28
2023-05-08T09:09:33.504Z,6.93
2023-05-08T09:12:00.460Z,6.93
2023-05-08T09:14:29.630Z,7.68
2023-05-08T09:16:56.690Z,7.57
2023-05-08T09:19:36.244Z,8.25
2023-05-08T09:24:57.153Z,8.20
2023-05-08T09:27:27.092Z,8.10
2023-05-08T09:30:04.790Z,8.13
2023-05-08T09:32:37.712Z,8.27
2023-05-08T09:35:06.631Z,8.35
2023-05-08T09:37:35.108Z,8.90
2023-05-08T09:40:19.127Z,8.50
2023-05-08T09:42:46.557Z,8.35
2023-05-08T09:45:29.008Z,8.35
2023-05-08T09:47:58.586Z,8.27
2023-05-08T09:50:25.825Z,8.63
2023-05-08T09:52:53.317Z,9.13
2023-05-08T09:55:22.771Z,8.73
2023-05-08T09:57:56.635Z,10.90
2023-05-08T10:00:27.680Z,10.13
2023-05-08T10:02:57.904Z,9.88
2023-05-08T10:05:34.829Z,9.68
2023-05-08T10:08:23.925Z,8.90
2023-05-08T10:10:51.243Z,9.98
2023-05-08T10:13:19.847Z,8.95
2023-05-08T10:15:59.488Z,9.05
2023-05-08T10:21:15.159Z,9.88
2023-05-08T10:26:33.253Z,10.23
2023-05-08T10:29:07.350Z,10.10
2023-05-08T10:31:41.734Z,9.38
2023-05-08T10:34:14.775Z,10.13
2023-05-08T10:36:42.685Z,10.10
2023-05-08T10:39:11.906Z,9.88
2023-05-08T10:41:40.505Z,10.27
2023-05-08T10:44:10.445Z,9.93
2023-05-08T10:50:04.052Z,10.93
2023-05-08T10:52:37.065Z,11.02
2023-05-08T10:55:21.908Z,10.30
2023-05-08T10:58:05.795Z,10.90
2023-05-08T11:00:33.434Z,10.27
2023-05-08T11:03:08.553Z,11.80
2023-05-08T11:05:51.638Z,10.75
2023-05-08T11:08:19.451Z,11.48
2023-05-08T11:10:59.116Z,10.75
2023-05-08T11:13:29.170Z,11.07
2023-05-08T11:15:57.022Z,11.70
2023-05-08T11:18:25.068Z,11.90
2023-05-08T11:20:59.137Z,10.90
2023-05-08T11:23:26.872Z,11.35
2023-05-08T11:26:01.432Z,11.88
2023-05-08T11:28:32.161Z,11.43
2023-05-08T11:31:03.836Z,11.77
2023-05-08T11:33:31.725Z,12.63
2023-05-08T11:36:01.145Z,12.68
2023-05-08T11:38:33.018Z,12.70
2023-05-08T11:41:01.976Z,12.38
2023-05-08T11:43:44.566Z,12.25
2023-05-08T11:46:15.051Z,13.10
2023-05-08T11:48:42.071Z,12.38
2023-05-08T11:51:10.679Z,11.68
2023-05-08T11:53:37.932Z,11.82
2023-05-08T11:56:05.744Z,11.32
2023-05-08T11:58:32.500Z,11.68
2023-05-08T12:00:59.300Z,11.10
2023-05-08T12:03:26.242Z,11.88
2023-05-08T12:05:56.930Z,10.90
2023-05-08T12:08:25.648Z,11.18
2023-05-08T12:10:54.054Z,10.23
2023-05-08T12:13:22.325Z,10.85
2023-05-08T12:15:50.618Z,10.02
2023-05-08T12:18:17.814Z,11.25
2023-05-08T12:20:44.671Z,13.05
2023-05-08T12:23:11.839Z,11.57
2023-05-08T12:25:40.294Z,11.82
2023-05-08T12:28:07.633Z,10.13
2023-05-08T12:30:34.825Z,10.50
2023-05-08T12:33:02.205Z,10.35
2023-05-08T12:35:29.227Z,11.45
2023-05-08T12:38:01.366Z,10.63
2023-05-08T12:40:31.013Z,10.75
2023-05-08T12:43:01.611Z,11.15
2023-05-08T12:45:30.158Z,10.65
2023-05-08T12:48:00.119Z,10.43
2023-05-08T12:50:27.087Z,11.35
2023-05-08T12:52:54.123Z,10.40
2023-05-08T12:55:22.377Z,10.95
2023-05-08T12:57:49.267Z,11.10
2023-05-08T13:00:18.491Z,10.88
2023-05-08T13:02:52.861Z,10.38
2023-05-08T13:05:21.412Z,11.00
2023-05-08T13:07:48.677Z,10.80
2023-05-08T13:10:15.601Z,12.15
2023-05-08T13:12:42.696Z,12.20
2023-05-08T13:15:10.930Z,11.85
2023-05-08T13:17:39.126Z,11.82
2023-05-08T13:20:07.145Z,12.48
2023-05-08T13:22:33.948Z,13.15
2023-05-08T13:25:00.796Z,12.45
2023-05-08T13:27:27.548Z,13.40
2023-05-08T13:29:54.302Z,13.20
2023-05-08T13:32:21.240Z,12.90
2023-05-08T13:34:51.990Z,12.85
2023-05-08T13:37:20.881Z,12.88
2023-05-08T13:39:47.658Z,12.93
2023-05-08T13:42:14.417Z,13.27
2023-05-08T13:44:41.137Z,11.73
2023-05-08T13:47:08.501Z,12.45
2023-05-08T13:49:35.259Z,12.27
2023-05-08T13:52:03.652Z,12.57
2023-05-08T13:54:30.407Z,11.20
2023-05-08T13:56:57.232Z,12.00
2023-05-08T13:59:24.022Z,11.68
2023-05-08T14:01:50.894Z,11.15
2023-05-08T14:04:17.679Z,11.13
2023-05-08T14:06:44.622Z,11.43
2023-05-08T14:09:12.856Z,12.00
2023-05-08T14:11:39.604Z,11.15
2023-05-08T14:14:06.357Z,10.75
2023-05-08T14:16:33.327Z,11.52
2023-05-08T14:19:00.180Z,10.43
2023-05-08T14:21:27.014Z,10.30
2023-05-08T14:23:53.856Z,10.73
2023-05-08T14:26:21.967Z,10.43
2023-05-08T14:28:48.883Z,10.50
2023-05-08T14:31:15.769Z,10.07
2023-05-08T14:33:42.587Z,9.98
2023-05-08T14:36:09.835Z,8.88
2023-05-08T14:38:36.748Z,9.30
2023-05-08T14:41:04.901Z,8.63
2023-05-08T14:43:33.241Z,8.27
2023-05-08T14:46:00.083Z,8.07
2023-05-08T14:48:26.894Z,7.78
2023-05-08T14:50:53.747Z,7.47
2023-05-08T14:53:20.622Z,7.10
2023-05-08T14:55:47.785Z,8.52
2023-05-08T14:58:14.728Z,6.68
2023-05-08T15:00:42.858Z,7.22
2023-05-08T15:03:09.747Z,7.90
2023-05-08T15:05:36.634Z,7.70
2023-05-08T15:08:03.441Z,8.05
2023-05-08T15:10:30.350Z,8.00
2023-05-08T15:12:57.229Z,8.25
2023-05-08T15:15:24.078Z,9.30
2023-05-08T15:17:52.357Z,8.38
2023-05-08T15:20:19.426Z,10.90
2023-05-08T15:22:46.169Z,8.93
2023-05-08T15:25:13.422Z,8.57
2023-05-08T15:27:40.334Z,9.13
2023-05-08T15:30:08.280Z,8.70
2023-05-08T15:32:35.251Z,9.15
2023-05-08T15:35:03.751Z,8.15
2023-05-08T15:37:30.540Z,8.70
2023-05-08T15:39:57.332Z,9.15
2023-05-08T15:42:24.136Z,9.15
2023-05-08T15:44:55.296Z,8.70
2023-05-08T15:47:22.166Z,9.07
2023-05-08T15:49:49.027Z,8.85
2023-05-08T15:52:17.188Z,8.40
2023-05-08T15:54:44.059Z,9.32
2023-05-08T15:57:10.809Z,8.93
2023-05-08T15:59:37.575Z,10.63
2023-05-08T16:02:04.696Z,9.30
2023-05-08T16:04:31.836Z,8.45
2023-05-08T16:06:58.916Z,9.48
2023-05-08T16:09:27.094Z,8.57
2023-05-08T16:11:53.937Z,7.75
2023-05-08T16:14:20.695Z,7.70
2023-05-08T16:16:47.458Z,8.30
2023-05-08T16:19:14.250Z,8.30
2023-05-08T16:21:41.195Z,8.02
2023-05-08T16:24:08.020Z,7.93
2023-05-08T16:26:36.193Z,7.60
2023-05-08T16:29:02.959Z,8.20
2023-05-08T16:31:29.782Z,8.95
2023-05-08T16:33:56.581Z,9.60
2023-05-08T16:36:23.342Z,9.57
2023-05-08T16:38:50.147Z,9.15
2023-05-08T16:41:16.896Z,8.73
2023-05-08T16:43:45.081Z,9.52
2023-05-08T16:46:11.840Z,9.02
2023-05-08T16:48:38.627Z,9.40
2023-05-08T16:51:05.451Z,9.48
2023-05-08T16:53:32.204Z,8.90
2023-05-08T16:55:58.920Z,8.85
2023-05-08T16:58:25.717Z,8.88
2023-05-08T17:00:53.920Z,8.23
2023-05-08T17:03:20.880Z,9.07
2023-05-08T17:05:47.737Z,9.30
2023-05-08T17:08:14.520Z,9.20
2023-05-08T17:10:41.350Z,8.73
2023-05-08T17:13:08.158Z,9.88
2023-05-08T17:15:35.050Z,10.80
2023-05-08T17:18:03.378Z,10.43
2023-05-08T17:20:30.145Z,9.73
2023-05-08T17:22:56.917Z,10.65
2023-05-08T17:25:23.820Z,10.10
2023-05-08T17:27:50.562Z,10.48
2023-05-08T17:30:17.360Z,10.55
2023-05-08T17:32:44.182Z,10.93
2023-05-08T17:35:12.333Z,11.88
2023-05-08T17:37:39.107Z,11.50
2023-05-08T17:40:07.241Z,11.88
2023-05-08T17:42:33.970Z,11.15
2023-05-08T17:45:00.838Z,11.82
2023-05-08T17:47:27.734Z,12.20
2023-05-08T17:49:54.478Z,12.00
2023-05-08T17:52:22.591Z,11.38
2023-05-08T17:54:50.700Z,12.43
2023-05-08T17:57:17.493Z,11.55
2023-05-08T17:59:44.299Z,11.57
2023-05-08T18:02:11.073Z,12.55
2023-05-08T18:04:37.835Z,12.10
2023-05-08T18:07:04.672Z,11.40
2023-05-08T18:09:33.121Z,12.32
2023-05-08T18:11:59.853Z,12.45
2023-05-08T18:14:29.641Z,11.45
2023-05-08T18:16:56.397Z,13.25
2023-05-08T18:19:23.335Z,11.95
2023-05-08T18:21:50.174Z,11.63
2023-05-08T18:24:17.053Z,12.32
2023-05-08T18:26:46.532Z,12.88
2023-05-08T18:29:13.366Z,12.20
2023-05-08T18:31:40.301Z,12.25
2023-05-08T18:34:07.052Z,12.98
2023-05-08T18:36:33.876Z,13.40
2023-05-08T18:39:00.627Z,13.88
2023-05-08T18:41:27.436Z,13.35
2023-05-08T18:43:55.532Z,14.20
2023-05-08T18:46:22.366Z,14.32
2023-05-08T18:48:49.174Z,13.63
2023-05-08T18:51:15.924Z,14.13
2023-05-08T18:53:42.662Z,14.02
2023-05-08T18:56:09.483Z,13.73
2023-05-08T18:58:36.237Z,14.07
2023-05-08T19:01:04.497Z,14.48
2023-05-08T19:03:31.370Z,14.32
2023-05-08T19:05:58.281Z,14.00
2023-05-08T19:08:25.403Z,14.00
2023-05-08T19:10:52.201Z,14.38
2023-05-08T19:13:19.118Z,14.30
2023-05-08T19:15:45.940Z,14.35
2023-05-08T19:18:14.079Z,14.02
2023-05-08T19:20:40.832Z,13.52
2023-05-08T19:23:07.611Z,13.65
2023-05-08T19:25:34.358Z,13.93
2023-05-08T19:28:01.210Z,14.13
2023-05-08T19:30:27.993Z,14.55
2023-05-08T19:32:54.762Z,14.57
2023-05-08T19:35:23.050Z,13.43
2023-05-08T19:37:49.877Z,13.23
2023-05-08T19:40:16.902Z,13.73
2023-05-08T19:42:43.696Z,16.08
2023-05-08T19:45:11.808Z,15.00
2023-05-08T19:47:38.830Z,14.93
2023-05-08T19:50:06.761Z,15.23
2023-05-08T19:52:35.035Z,15.02
2023-05-08T19:55:01.816Z,14.07
2023-05-08T19:57:28.575Z,15.60
2023-05-08T19:59:55.398Z,14.85
2023-05-08T20:02:22.198Z,14.52
2023-05-08T20:05:14.214Z,14.63
2023-05-08T20:07:37.153Z,14.57
2023-05-08T20:10:04.494Z,14.82
2023-05-08T20:12:31.254Z,14.93
2023-05-08T20:14:58.060Z,14.77
2023-05-08T20:17:24.872Z,14.68
2023-05-08T20:19:51.682Z,14.82
2023-05-08T20:22:18.570Z,14.93
2023-05-08T20:24:46.662Z,14.50
2023-05-08T20:27:13.388Z,21.08
2023-05-08T20:29:40.189Z,19.80
2023-05-08T20:32:07.135Z,15.00
2023-05-08T20:34:34.153Z,14.90
2023-05-08T20:37:01.230Z,14.90
2023-05-08T20:39:28.110Z,15.38
2023-05-08T20:41:56.296Z,14.20
2023-05-08T20:44:23.014Z,14.00
2023-05-08T20:46:49.813Z,14.43
2023-05-08T20:49:16.585Z,14.68
2023-05-08T20:51:43.406Z,14.55
2023-05-08T20:54:10.153Z,15.07
2023-05-08T20:56:37.007Z,15.43
2023-05-08T20:59:05.121Z,14.23
2023-05-08T21:01:31.984Z,14.63
2023-05-08T21:03:58.803Z,14.50
2023-05-08T21:06:26.618Z,15.23
2023-05-08T21:08:53.422Z,15.13
2023-05-08T21:11:20.212Z,14.63
2023-05-08T21:13:47.009Z,14.35
2023-05-08T21:16:15.188Z,15.43
2023-05-08T21:18:41.958Z,15.73
2023-05-08T21:21:14.799Z,15.25
2023-05-08T21:23:41.568Z,14.65
2023-05-08T21:26:08.303Z,14.23
2023-05-08T21:28:35.027Z,16.10
2023-05-08T21:31:01.841Z,14.75
2023-05-08T21:33:30.002Z,14.15
2023-05-08T21:35:56.733Z,14.98
2023-05-08T21:38:23.496Z,14.98
2023-05-08T21:40:50.255Z,15.00
2023-05-08T21:43:17.041Z,14.98
2023-05-08T21:45:43.841Z,14.50
2023-05-08T21:48:10.601Z,14.63
2023-05-08T21:50:38.706Z,14.30
2023-05-08T21:53:05.462Z,13.77
2023-05-08T21:55:32.633Z,14.00
2023-05-08T21:57:59.413Z,13.82
2023-05-08T22:00:26.164Z,13.02
2023-05-08T22:02:52.949Z,13.27
2023-05-08T22:05:19.841Z,12.82
2023-05-08T22:07:47.983Z,12.50
2023-05-08T22:10:14.727Z,12.60
2023-05-08T22:12:41.481Z,12.43
2023-05-08T22:15:17.949Z,13.20
2023-05-08T22:17:48.764Z,12.60
2023-05-08T22:20:15.545Z,12.27
2023-05-08T22:22:42.567Z,11.73
2023-05-08T22:25:10.952Z,11.77
2023-05-08T22:27:37.731Z,12.45
2023-05-08T22:30:05.570Z,11.85
2023-05-08T22:32:32.311Z,11.18
2023-05-08T22:34:59.068Z,11.48
2023-05-08T22:37:26.031Z,11.88
2023-05-08T22:39:52.798Z,11.68
2023-05-08T22:42:20.929Z,11.50
2023-05-08T22:44:48.056Z,11.52
2023-05-08T22:47:15.009Z,11.35
2023-05-08T22:49:42.132Z,12.02
2023-05-08T22:52:09.436Z,10.55
2023-05-08T22:54:36.304Z,11.20
2023-05-08T22:57:03.160Z,11.93
2023-05-08T22:59:31.288Z,10.85
2023-05-08T23:01:58.196Z,11.63
2023-05-08T23:04:25.064Z,10.60
2023-05-08T23:06:51.897Z,11.23
2023-05-08T23:09:18.739Z,11.45
2023-05-08T23:11:45.490Z,11.40
2023-05-08T23:14:12.198Z,11.15
2023-05-08T23:16:40.386Z,10.75
2023-05-08T23:19:07.129Z,11.25
2023-05-08T23:21:33.967Z,11.13
2023-05-08T23:24:00.727Z,11.15
2023-05-08T23:26:27.513Z,11.05
2023-05-08T23:28:54.253Z,10.60
2023-05-08T23:31:21.089Z,10.35
2023-05-08T23:33:49.307Z,11.07
2023-05-08T23:36:16.034Z,11.07
2023-05-08T23:38:42.829Z,11.13
2023-05-08T23:41:09.819Z,10.90
2023-05-08T23:43:36.696Z,10.65
2023-05-08T23:46:03.576Z,11.23
2023-05-08T23:48:30.411Z,10.60
2023-05-08T23:50:58.726Z,10.80
2023-05-08T23:53:25.519Z,9.88
2023-05-08T23:55:52.260Z,10.57
2023-05-08T23:58:19.160Z,11.20
